createdAt,value
2022-08-02T00:00:41.592Z,0.00
2022-08-02T00:01:40.856Z,0.00
2022-08-02T00:02:40.943Z,0.00
2022-08-02T00:03:41.144Z,0.00
2022-08-02T00:04:41.294Z,0.00
2022-08-02T00:05:41.511Z,0.00
2022-08-02T00:06:41.675Z,0.00
2022-08-02T00:07:41.841Z,0.00
2022-08-02T00:08:42.004Z,0.00
2022-08-02T00:09:42.164Z,0.00
2022-08-02T00:10:42.334Z,0.00
2022-08-02T00:11:43.208Z,0.00
2022-08-02T00:12:42.674Z,0.00
2022-08-02T00:13:42.833Z,0.00
2022-08-02T00:14:42.994Z,0.00
2022-08-02T00:15:43.178Z,0.00
2022-08-02T00:16:43.334Z,0.00
2022-08-02T00:17:43.526Z,0.00
2022-08-02T00:18:43.684Z,0.00
2022-08-02T00:19:43.851Z,0.00
2022-08-02T00:20:44.024Z,0.00
2022-08-02T00:21:44.185Z,0.00
2022-08-02T00:22:44.346Z,0.00
2022-08-02T00:24:27.535Z,0.00
2022-08-02T00:24:45.707Z,0.00
2022-08-02T00:25:55.431Z,0.00
2022-08-02T00:26:46.015Z,0.00
2022-08-02T00:27:45.205Z,0.00
2022-08-02T00:28:45.357Z,0.00
2022-08-02T00:29:53.041Z,0.00
2022-08-02T00:30:46.766Z,0.00
2022-08-02T00:31:45.914Z,0.00
2022-08-02T00:32:46.066Z,0.00
2022-08-02T00:34:05.650Z,0.00
2022-08-02T00:34:47.417Z,0.00
2022-08-02T00:35:46.606Z,0.00
2022-08-02T00:36:46.769Z,0.00
2022-08-02T00:37:46.937Z,0.00
2022-08-02T00:38:47.087Z,0.00
2022-08-02T00:39:47.245Z,0.00
2022-08-02T00:40:47.436Z,0.00
2022-08-02T00:41:47.597Z,0.00
2022-08-02T00:42:47.757Z,0.00
2022-08-02T00:43:47.919Z,0.00
2022-08-02T00:44:48.082Z,0.00
2022-08-02T00:46:02.119Z,0.00
2022-08-02T00:46:49.430Z,0.00
2022-08-02T00:47:48.617Z,0.00
2022-08-02T00:48:48.778Z,0.00
2022-08-02T00:49:48.967Z,0.00
2022-08-02T00:50:49.157Z,0.00
2022-08-02T00:51:49.315Z,0.00
2022-08-02T00:52:49.458Z,0.00
2022-08-02T00:53:49.618Z,0.00
2022-08-02T00:54:49.778Z,0.00
2022-08-02T00:55:49.978Z,0.00
2022-08-02T00:56:51.204Z,0.00
2022-08-02T00:57:50.328Z,0.00
2022-08-02T00:58:50.488Z,0.00
2022-08-02T00:59:50.648Z,0.00
2022-08-02T01:00:50.829Z,0.00
2022-08-02T01:01:56.406Z,0.00
2022-08-02T01:02:52.167Z,0.00
2022-08-02T01:03:51.348Z,0.00
2022-08-02T01:04:51.537Z,0.00
2022-08-02T01:06:10.205Z,0.00
2022-08-02T01:06:52.868Z,0.00
2022-08-02T01:07:52.045Z,0.00
2022-08-02T01:08:52.238Z,0.00
2022-08-02T01:09:52.399Z,0.00
2022-08-02T01:10:52.618Z,0.00
2022-08-02T01:11:52.777Z,0.00
2022-08-02T01:12:52.937Z,0.00
2022-08-02T01:13:53.097Z,0.00
2022-08-02T01:14:53.289Z,0.00
2022-08-02T01:15:53.469Z,0.00
2022-08-02T01:16:53.635Z,0.00
2022-08-02T01:17:53.789Z,0.00
2022-08-02T01:18:53.988Z,0.00
2022-08-02T01:19:54.138Z,0.00
2022-08-02T01:20:54.349Z,0.00
2022-08-02T01:21:54.523Z,0.00
2022-08-02T01:23:02.757Z,0.00
2022-08-02T01:23:55.859Z,0.00
2022-08-02T01:24:55.039Z,0.00
2022-08-02T01:25:55.249Z,0.00
2022-08-02T01:26:55.371Z,0.00
2022-08-02T01:27:55.560Z,0.00
2022-08-02T01:28:55.749Z,0.00
2022-08-02T01:29:55.913Z,0.00
2022-08-02T01:30:56.119Z,0.00
2022-08-02T01:31:56.280Z,0.00
2022-08-02T01:32:56.439Z,0.00
2022-08-02T01:33:56.600Z,0.00
2022-08-02T01:34:56.759Z,0.00
2022-08-02T01:35:56.942Z,0.00
2022-08-02T01:36:57.111Z,0.00
2022-08-02T01:37:57.260Z,0.00
2022-08-02T01:38:57.469Z,0.00
2022-08-02T01:39:57.620Z,0.00
2022-08-02T01:40:57.828Z,0.00
2022-08-02T01:41:58.102Z,0.00
2022-08-02T01:42:58.150Z,0.00
2022-08-02T01:43:58.309Z,0.00
2022-08-02T01:44:58.501Z,0.00
2022-08-02T01:45:58.671Z,0.00
2022-08-02T01:46:58.833Z,0.00
2022-08-02T01:47:58.980Z,0.00
2022-08-02T01:48:59.198Z,0.00
2022-08-02T01:49:59.360Z,0.00
2022-08-02T01:50:59.551Z,0.00
2022-08-02T01:51:59.711Z,0.00
2022-08-02T01:52:59.873Z,0.00
2022-08-02T01:54:00.035Z,0.00
2022-08-02T01:55:00.220Z,0.00
2022-08-02T01:56:00.391Z,0.00
2022-08-02T01:57:00.564Z,0.00
2022-08-02T01:58:00.711Z,0.00
2022-08-02T01:59:00.902Z,0.00
2022-08-02T02:00:01.519Z,0.00
2022-08-02T02:01:01.303Z,0.00
2022-08-02T02:02:01.414Z,0.00
2022-08-02T02:03:01.575Z,0.00
2022-08-02T02:04:01.753Z,0.00
2022-08-02T02:05:01.949Z,0.00
2022-08-02T02:06:02.150Z,0.00
2022-08-02T02:07:02.307Z,0.00
2022-08-02T02:08:02.482Z,0.00
2022-08-02T02:09:02.649Z,0.00
2022-08-02T02:10:02.804Z,0.00
2022-08-02T02:12:11.451Z,0.00
2022-08-02T02:12:13.555Z,0.00
2022-08-02T02:13:04.316Z,0.00
2022-08-02T02:14:03.493Z,0.00
2022-08-02T02:15:03.692Z,0.00
2022-08-02T02:16:03.902Z,0.00
2022-08-02T02:17:04.064Z,0.00
2022-08-02T02:18:11.294Z,0.00
2022-08-02T02:19:05.403Z,0.00
2022-08-02T02:20:04.593Z,0.00
2022-08-02T02:21:04.763Z,0.00
2022-08-02T02:22:04.923Z,0.00
2022-08-02T02:23:05.112Z,0.00
2022-08-02T02:24:06.546Z,0.00
2022-08-02T02:25:06.630Z,0.00
2022-08-02T02:26:05.662Z,0.00
2022-08-02T02:27:05.823Z,0.00
2022-08-02T02:28:05.974Z,0.00
2022-08-02T02:29:06.175Z,0.00
2022-08-02T02:30:06.333Z,0.00
2022-08-02T02:31:06.507Z,0.00
2022-08-02T02:32:06.675Z,0.00
2022-08-02T02:33:06.866Z,0.00
2022-08-02T02:34:07.025Z,0.00
2022-08-02T02:35:07.184Z,0.00
2022-08-02T02:36:07.363Z,0.00
2022-08-02T02:37:07.523Z,0.00
2022-08-02T02:38:07.674Z,0.00
2022-08-02T02:39:13.047Z,0.00
2022-08-02T02:40:09.048Z,0.00
2022-08-02T02:41:08.246Z,0.00
2022-08-02T02:42:08.812Z,0.00
2022-08-02T02:43:08.575Z,0.00
2022-08-02T02:44:08.736Z,0.00
2022-08-02T02:45:08.927Z,0.00
2022-08-02T02:46:09.098Z,0.00
2022-08-02T02:47:09.269Z,0.00
2022-08-02T02:48:09.416Z,0.00
2022-08-02T02:49:09.638Z,0.00
2022-08-02T02:50:09.806Z,4.00
2022-08-02T02:51:14.332Z,4.00
2022-08-02T02:52:10.454Z,4.00
2022-08-02T02:53:10.341Z,0.00
2022-08-02T02:54:30.060Z,0.00
2022-08-02T02:55:11.668Z,4.00
2022-08-02T02:56:10.867Z,4.00
2022-08-02T02:57:11.023Z,4.00
2022-08-02T02:58:11.206Z,4.00
2022-08-02T02:59:11.399Z,4.00
2022-08-02T03:00:11.554Z,8.00
2022-08-02T03:01:11.788Z,4.00
2022-08-02T03:02:12.194Z,4.00
2022-08-02T03:03:12.099Z,4.00
2022-08-02T03:04:12.304Z,8.00
2022-08-02T03:05:12.427Z,8.00
2022-08-02T03:06:15.316Z,12.00
2022-08-02T03:07:12.777Z,12.00
2022-08-02T03:08:12.948Z,12.00
2022-08-02T03:09:13.126Z,12.00
2022-08-02T03:10:13.307Z,16.00
2022-08-02T03:11:13.507Z,16.00
2022-08-02T03:12:13.841Z,20.00
2022-08-02T03:13:13.827Z,24.00
2022-08-02T03:14:13.999Z,28.00
2022-08-02T03:15:14.189Z,28.00
2022-08-02T03:16:14.382Z,36.00
2022-08-02T03:17:14.528Z,40.00
2022-08-02T03:18:14.708Z,44.00
2022-08-02T03:19:14.881Z,52.00
2022-08-02T03:20:15.064Z,60.00
2022-08-02T03:21:15.260Z,68.00
2022-08-02T03:22:15.456Z,72.00
2022-08-02T03:23:15.569Z,80.00
2022-08-02T03:24:15.749Z,88.00
2022-08-02T03:25:16.924Z,92.00
2022-08-02T03:26:16.088Z,96.00
2022-08-02T03:27:16.238Z,104.00
2022-08-02T03:28:16.398Z,112.00
2022-08-02T03:29:16.560Z,120.00
2022-08-02T03:30:16.739Z,128.00
2022-08-02T03:31:16.936Z,140.00
2022-08-02T03:32:17.070Z,152.00
2022-08-02T03:33:17.259Z,172.00
2022-08-02T03:34:17.439Z,188.00
2022-08-02T03:35:22.926Z,208.00
2022-08-02T03:36:18.811Z,228.00
2022-08-02T03:37:17.959Z,252.00
2022-08-02T03:38:18.149Z,276.00
2022-08-02T03:39:18.340Z,296.00
2022-08-02T03:40:18.530Z,320.00
2022-08-02T03:41:18.738Z,348.00
2022-08-02T03:42:18.879Z,388.00
2022-08-02T03:43:19.059Z,420.00
2022-08-02T03:44:19.249Z,452.00
2022-08-02T03:45:19.440Z,480.00
2022-08-02T03:46:19.821Z,524.00
2022-08-02T03:47:19.820Z,560.00
2022-08-02T03:48:33.819Z,584.00
2022-08-02T03:49:21.207Z,604.00
2022-08-02T03:50:20.301Z,636.00
2022-08-02T03:51:20.519Z,664.00
2022-08-02T03:52:20.651Z,712.00
2022-08-02T03:53:20.840Z,768.00
2022-08-02T03:54:20.993Z,840.00
2022-08-02T03:55:21.183Z,912.00
2022-08-02T03:56:23.447Z,980.00
2022-08-02T03:57:21.503Z,1040.00
2022-08-02T03:58:21.660Z,1084.00
2022-08-02T03:59:21.821Z,1108.00
2022-08-02T04:00:21.980Z,1148.00
2022-08-02T04:01:22.232Z,1160.00
2022-08-02T04:02:22.311Z,1164.00
2022-08-02T04:03:22.471Z,1200.00
2022-08-02T04:04:22.632Z,1276.00
2022-08-02T04:05:22.800Z,1368.00
2022-08-02T04:06:27.246Z,1428.00
2022-08-02T04:08:02.524Z,1468.00
2022-08-02T04:08:37.079Z,1536.00
2022-08-02T04:09:24.521Z,1556.00
2022-08-02T04:10:23.701Z,1516.00
2022-08-02T04:11:23.918Z,1464.00
2022-08-02T04:12:24.044Z,1428.00
2022-08-02T04:13:27.449Z,1428.00
2022-08-02T04:14:25.383Z,1452.00
2022-08-02T04:15:24.572Z,1544.00
2022-08-02T04:16:24.752Z,1640.00
2022-08-02T04:17:24.982Z,1776.00
2022-08-02T04:18:25.120Z,1888.00
2022-08-02T04:19:25.306Z,1964.00
2022-08-02T04:20:25.475Z,1976.00
2022-08-02T04:21:25.652Z,2112.00
2022-08-02T04:22:25.804Z,2208.00
2022-08-02T04:23:25.993Z,2268.00
2022-08-02T04:24:26.156Z,2308.00
2022-08-02T04:25:35.608Z,2352.00
2022-08-02T04:26:28.491Z,2432.00
2022-08-02T04:27:51.096Z,2480.00
2022-08-02T04:28:29.126Z,2464.00
2022-08-02T04:29:27.012Z,2444.00
2022-08-02T04:30:27.208Z,2516.00
2022-08-02T04:31:27.355Z,2676.00
2022-08-02T04:32:27.549Z,2776.00
2022-08-02T04:33:27.695Z,2772.00
2022-08-02T04:34:27.874Z,2740.00
2022-08-02T04:35:28.062Z,2744.00
2022-08-02T04:36:31.652Z,2696.00
2022-08-02T04:37:28.433Z,2616.00
2022-08-02T04:38:28.576Z,2548.00
2022-08-02T04:39:28.753Z,2504.00
2022-08-02T04:40:28.933Z,2504.00
2022-08-02T04:41:29.121Z,2460.00
2022-08-02T04:42:29.314Z,2464.00
2022-08-02T04:43:29.466Z,2468.00
2022-08-02T04:44:29.647Z,2504.00
2022-08-02T04:45:29.825Z,2564.00
2022-08-02T04:46:30.015Z,2664.00
2022-08-02T04:48:02.451Z,2768.00
2022-08-02T04:48:31.344Z,2864.00
2022-08-02T04:49:30.587Z,2932.00
2022-08-02T04:50:30.719Z,2984.00
2022-08-02T04:51:38.190Z,3052.00
2022-08-02T04:52:32.063Z,3128.00
2022-08-02T04:53:31.223Z,3236.00
2022-08-02T04:54:31.405Z,3364.00
2022-08-02T04:55:31.588Z,3484.00
2022-08-02T04:56:31.766Z,3532.00
2022-08-02T04:57:31.966Z,3556.00
2022-08-02T04:58:40.646Z,3596.00
2022-08-02T04:59:33.276Z,3976.00
2022-08-02T05:00:32.739Z,3928.00
2022-08-02T05:01:32.634Z,3864.00
2022-08-02T05:02:32.830Z,3844.00
2022-08-02T05:03:32.973Z,3836.00
2022-08-02T05:04:33.148Z,3688.00
2022-08-02T05:05:33.327Z,3720.00
2022-08-02T05:06:33.506Z,3724.00
2022-08-02T05:07:35.996Z,3620.00
2022-08-02T05:08:33.847Z,3628.00
2022-08-02T05:09:34.037Z,3664.00
2022-08-02T05:10:34.216Z,3724.00
2022-08-02T05:11:36.713Z,3812.00
2022-08-02T05:12:34.575Z,3940.00
2022-08-02T05:13:34.717Z,4052.00
2022-08-02T05:14:35.906Z,4136.00
2022-08-02T05:15:35.099Z,4204.00
2022-08-02T05:16:35.277Z,4292.00
2022-08-02T05:17:35.477Z,4412.00
2022-08-02T05:18:35.628Z,4520.00
2022-08-02T05:19:35.807Z,4620.00
2022-08-02T05:20:35.987Z,4788.00
2022-08-02T05:21:36.167Z,4988.00
2022-08-02T05:22:36.370Z,5296.00
2022-08-02T05:23:36.535Z,5596.00
2022-08-02T05:24:36.717Z,5708.00
2022-08-02T05:25:36.896Z,5876.00
2022-08-02T05:26:37.077Z,6832.00
2022-08-02T05:27:37.267Z,9180.00
2022-08-02T05:28:37.429Z,12136.00
2022-08-02T05:29:37.588Z,14016.00
2022-08-02T05:30:37.762Z,14892.00
2022-08-02T05:31:37.929Z,15096.00
2022-08-02T05:32:38.108Z,14956.00
2022-08-02T05:33:38.258Z,14980.00
2022-08-02T05:34:38.429Z,14972.00
2022-08-02T05:35:38.596Z,14880.00
2022-08-02T05:36:38.772Z,14948.00
2022-08-02T05:37:38.945Z,15360.00
2022-08-02T05:38:39.131Z,16120.00
2022-08-02T05:39:39.288Z,17120.00
2022-08-02T05:40:54.285Z,18208.00
2022-08-02T05:41:40.612Z,18688.00
2022-08-02T05:42:39.816Z,19296.00
2022-08-02T05:43:39.990Z,19712.00
2022-08-02T05:44:40.171Z,20064.00
2022-08-02T05:45:40.349Z,20256.00
2022-08-02T05:46:40.522Z,20704.00
2022-08-02T05:47:40.710Z,21216.00
2022-08-02T05:48:40.891Z,21312.00
2022-08-02T05:49:41.155Z,21792.00
2022-08-02T05:50:41.253Z,21920.00
2022-08-02T05:51:41.412Z,14608.00
2022-08-02T05:52:41.609Z,16992.00
2022-08-02T05:53:41.761Z,18880.00
2022-08-02T05:54:41.952Z,20576.00
2022-08-02T05:55:42.122Z,22240.00
2022-08-02T05:56:42.312Z,18304.00
2022-08-02T05:57:43.689Z,16992.00
2022-08-02T05:58:42.680Z,16044.00
2022-08-02T05:59:42.833Z,16120.00
2022-08-02T06:00:43.002Z,17440.00
2022-08-02T06:01:43.223Z,21792.00
2022-08-02T06:02:43.373Z,21792.00
2022-08-02T06:03:43.513Z,21856.00
2022-08-02T06:04:43.703Z,21664.00
2022-08-02T06:05:43.873Z,22720.00
2022-08-02T06:06:44.063Z,23392.00
2022-08-02T06:07:44.254Z,23968.00
2022-08-02T06:08:47.523Z,24672.00
2022-08-02T06:09:44.604Z,25056.00
2022-08-02T06:10:44.795Z,25504.00
2022-08-02T06:12:00.766Z,26496.00
2022-08-02T06:12:46.164Z,26720.00
2022-08-02T06:13:45.326Z,22528.00
2022-08-02T06:14:45.507Z,21792.00
2022-08-02T06:15:53.336Z,21280.00
2022-08-02T06:16:46.846Z,20640.00
2022-08-02T06:17:46.038Z,19296.00
2022-08-02T06:18:46.213Z,19840.00
2022-08-02T06:19:51.541Z,18880.00
2022-08-02T06:20:47.556Z,19264.00
2022-08-02T06:22:33.962Z,17408.00
2022-08-02T06:22:48.151Z,18080.00
2022-08-02T06:23:57.692Z,21344.00
2022-08-02T06:24:48.268Z,22432.00
2022-08-02T06:25:50.144Z,22944.00
2022-08-02T06:26:47.627Z,21120.00
2022-08-02T06:27:47.809Z,21920.00
2022-08-02T06:28:47.988Z,22048.00
2022-08-02T06:29:48.168Z,21760.00
2022-08-02T06:30:48.349Z,19232.00
2022-08-02T06:31:48.520Z,17376.00
2022-08-02T06:32:48.730Z,20000.00
2022-08-02T06:33:48.890Z,19968.00
2022-08-02T06:34:49.082Z,20896.00
2022-08-02T06:35:49.250Z,20928.00
2022-08-02T06:36:49.480Z,19744.00
2022-08-02T06:37:49.630Z,20704.00
2022-08-02T06:38:50.888Z,21152.00
2022-08-02T06:39:49.961Z,23616.00
2022-08-02T06:40:50.159Z,24096.00
2022-08-02T06:41:50.331Z,24640.00
2022-08-02T06:42:50.534Z,25312.00
2022-08-02T06:43:50.673Z,22816.00
2022-08-02T06:44:55.559Z,21504.00
2022-08-02T06:45:52.043Z,21664.00
2022-08-02T06:47:11.530Z,22880.00
2022-08-02T06:47:52.424Z,22944.00
2022-08-02T06:48:51.621Z,24608.00
2022-08-02T06:49:54.239Z,24064.00
2022-08-02T06:50:51.920Z,24000.00
2022-08-02T06:51:52.093Z,24096.00
2022-08-02T06:52:52.304Z,19776.00
2022-08-02T06:53:52.463Z,16200.00
2022-08-02T06:54:52.642Z,20064.00
2022-08-02T06:55:52.815Z,17440.00
2022-08-02T06:56:52.995Z,20672.00
2022-08-02T06:57:53.884Z,23296.00
2022-08-02T06:58:53.356Z,22848.00
2022-08-02T06:59:53.546Z,23840.00
2022-08-02T07:00:53.708Z,22976.00
2022-08-02T07:01:53.945Z,23616.00
2022-08-02T07:02:54.058Z,24832.00
2022-08-02T07:03:54.237Z,27488.00
2022-08-02T07:04:54.415Z,27552.00
2022-08-02T07:05:54.587Z,26016.00
2022-08-02T07:06:54.768Z,22336.00
2022-08-02T07:07:54.960Z,24192.00
2022-08-02T07:09:19.401Z,24480.00
2022-08-02T07:10:00.741Z,25440.00
2022-08-02T07:10:56.479Z,25984.00
2022-08-02T07:11:55.658Z,24032.00
2022-08-02T07:12:59.619Z,20288.00
2022-08-02T07:13:56.029Z,18848.00
2022-08-02T07:14:56.207Z,19168.00
2022-08-02T07:15:56.380Z,22304.00
2022-08-02T07:16:56.558Z,23200.00
2022-08-02T07:17:56.741Z,23776.00
2022-08-02T07:18:56.880Z,22176.00
2022-08-02T07:19:57.068Z,23936.00
2022-08-02T07:20:57.241Z,24640.00
2022-08-02T07:22:01.756Z,24896.00
2022-08-02T07:22:57.612Z,25664.00
2022-08-02T07:23:57.752Z,25984.00
2022-08-02T07:24:57.921Z,26208.00
2022-08-02T07:26:02.882Z,26368.00
2022-08-02T07:27:11.367Z,26624.00
2022-08-02T07:27:59.459Z,26624.00
2022-08-02T07:28:58.619Z,20896.00
2022-08-02T07:29:58.800Z,20384.00
2022-08-02T07:30:58.975Z,22560.00
2022-08-02T07:31:59.152Z,22144.00
2022-08-02T07:32:59.353Z,19648.00
2022-08-02T07:33:59.495Z,22528.00
2022-08-02T07:34:59.675Z,23456.00
2022-08-02T07:35:59.834Z,24896.00
2022-08-02T07:37:01.023Z,26592.00
2022-08-02T07:38:02.175Z,25856.00
2022-08-02T07:39:00.366Z,22592.00
2022-08-02T07:40:00.575Z,26080.00
2022-08-02T07:41:00.714Z,26688.00
2022-08-02T07:42:00.887Z,26912.00
2022-08-02T07:43:04.096Z,27296.00
2022-08-02T07:44:01.246Z,27456.00
2022-08-02T07:45:01.427Z,27744.00
2022-08-02T07:46:01.616Z,28256.00
2022-08-02T07:47:01.757Z,29280.00
2022-08-02T07:48:01.948Z,30112.00
2022-08-02T07:49:02.185Z,31424.00
2022-08-02T07:50:02.335Z,32032.00
2022-08-02T07:51:02.489Z,33984.00
2022-08-02T07:52:02.658Z,35456.00
2022-08-02T07:53:02.862Z,37120.00
2022-08-02T07:54:04.777Z,39840.00
2022-08-02T07:55:03.208Z,40320.00
2022-08-02T07:56:03.381Z,41856.00
2022-08-02T07:57:03.560Z,40960.00
2022-08-02T07:58:03.740Z,39968.00
2022-08-02T07:59:03.929Z,41920.00
2022-08-02T08:00:04.111Z,43872.00
2022-08-02T08:01:04.354Z,45376.00
2022-08-02T08:02:04.507Z,47488.00
2022-08-02T08:03:04.651Z,50528.00
2022-08-02T08:04:04.833Z,47424.00
2022-08-02T08:05:05.019Z,46912.00
2022-08-02T08:06:05.191Z,48352.00
2022-08-02T08:07:05.383Z,51168.00
2022-08-02T08:08:05.587Z,50464.00
2022-08-02T08:09:05.743Z,50528.00
2022-08-02T08:10:05.922Z,48672.00
2022-08-02T08:11:06.114Z,48256.00
2022-08-02T08:12:06.305Z,49696.00
2022-08-02T08:13:06.495Z,47488.00
2022-08-02T08:14:06.711Z,45216.00
2022-08-02T08:15:06.857Z,45888.00
2022-08-02T08:16:07.025Z,47040.00
2022-08-02T08:17:07.219Z,47200.00
2022-08-02T08:18:07.406Z,48096.00
2022-08-02T08:19:07.587Z,45952.00
2022-08-02T08:20:07.757Z,47648.00
2022-08-02T08:21:07.956Z,52288.00
2022-08-02T08:22:08.126Z,52896.00
2022-08-02T08:23:08.326Z,53056.00
2022-08-02T08:24:08.467Z,54752.00
2022-08-02T08:25:08.668Z,50336.00
2022-08-02T08:26:11.638Z,50912.00
2022-08-02T08:27:09.998Z,50912.00
2022-08-02T08:28:09.168Z,50432.00
2022-08-02T08:29:09.329Z,46112.00
2022-08-02T08:30:09.521Z,42272.00
2022-08-02T08:31:09.697Z,40736.00
2022-08-02T08:32:14.162Z,41440.00
2022-08-02T08:33:11.060Z,40960.00
2022-08-02T08:34:10.218Z,29280.00
2022-08-02T08:35:10.389Z,17216.00
2022-08-02T08:36:10.559Z,11036.00
2022-08-02T08:37:18.306Z,26688.00
2022-08-02T08:38:11.920Z,23648.00
2022-08-02T08:39:11.082Z,30560.00
2022-08-02T08:40:11.252Z,27968.00
2022-08-02T08:41:11.451Z,51168.00
2022-08-02T08:42:11.752Z,49600.00
2022-08-02T08:43:11.800Z,39968.00
2022-08-02T08:44:11.933Z,54016.00
2022-08-02T08:45:12.122Z,57120.00
2022-08-02T08:46:12.310Z,66272.00
2022-08-02T08:47:12.483Z,73088.00
2022-08-02T08:48:12.708Z,72896.00
2022-08-02T08:49:12.875Z,71040.00
2022-08-02T08:50:18.890Z,72192.00
2022-08-02T08:51:14.183Z,67424.00
2022-08-02T08:52:13.762Z,67392.00
2022-08-02T08:53:13.838Z,68928.00
2022-08-02T08:54:13.704Z,66848.00
2022-08-02T08:55:13.885Z,63360.00
2022-08-02T08:56:16.256Z,65472.00
2022-08-02T08:57:14.222Z,64288.00
2022-08-02T08:58:14.426Z,64192.00
2022-08-02T08:59:14.625Z,63712.00
2022-08-02T09:00:14.728Z,60928.00
2022-08-02T09:01:14.994Z,62656.00
2022-08-02T09:02:17.191Z,65248.00
2022-08-02T09:03:16.294Z,65280.00
2022-08-02T09:04:15.447Z,63744.00
2022-08-02T09:05:15.637Z,64192.00
2022-08-02T09:06:15.808Z,65792.00
2022-08-02T09:07:15.998Z,61536.00
2022-08-02T09:08:17.153Z,57088.00
2022-08-02T09:09:16.359Z,55808.00
2022-08-02T09:10:16.530Z,58880.00
2022-08-02T09:11:16.725Z,59904.00
2022-08-02T09:12:16.890Z,55808.00
2022-08-02T09:13:39.157Z,55296.00
2022-08-02T09:14:18.280Z,57696.00
2022-08-02T09:15:17.438Z,55040.00
2022-08-02T09:16:17.610Z,49312.00
2022-08-02T09:17:17.823Z,56320.00
2022-08-02T09:18:17.982Z,56160.00
2022-08-02T09:19:18.251Z,56096.00
2022-08-02T09:20:18.384Z,55520.00
2022-08-02T09:21:18.544Z,56320.00
2022-08-02T09:22:18.719Z,50944.00
2022-08-02T09:23:18.902Z,47648.00
2022-08-02T09:24:19.094Z,48448.00
2022-08-02T09:25:19.272Z,49056.00
2022-08-02T09:26:19.443Z,52768.00
2022-08-02T09:27:19.633Z,56416.00
2022-08-02T09:28:19.810Z,57568.00
2022-08-02T09:29:20.005Z,57280.00
2022-08-02T09:30:20.154Z,47744.00
2022-08-02T09:31:20.361Z,54080.00
2022-08-02T09:32:20.535Z,63456.00
2022-08-02T09:33:20.715Z,63104.00
2022-08-02T09:34:20.895Z,33920.00
2022-08-02T09:35:21.075Z,62144.00
2022-08-02T09:36:21.256Z,62592.00
2022-08-02T09:37:21.434Z,65120.00
2022-08-02T09:38:21.626Z,65760.00
2022-08-02T09:39:21.816Z,64320.00
2022-08-02T09:40:21.995Z,68832.00
2022-08-02T09:41:22.168Z,66848.00
2022-08-02T09:42:22.356Z,64864.00
2022-08-02T09:43:23.540Z,65024.00
2022-08-02T09:44:22.761Z,67840.00
2022-08-02T09:45:22.898Z,65600.00
2022-08-02T09:46:24.372Z,63360.00
2022-08-02T09:47:23.277Z,67904.00
2022-08-02T09:48:23.439Z,68224.00
2022-08-02T09:49:23.717Z,67200.00
2022-08-02T09:50:23.789Z,63840.00
2022-08-02T09:51:23.968Z,63168.00
2022-08-02T09:52:24.149Z,66208.00
2022-08-02T09:53:25.327Z,66144.00
2022-08-02T09:54:24.561Z,67328.00
2022-08-02T09:55:24.701Z,19200.00
2022-08-02T09:56:30.278Z,60288.00
2022-08-02T09:57:26.051Z,64544.00
2022-08-02T09:58:25.258Z,57792.00
2022-08-02T09:59:25.432Z,52416.00
2022-08-02T10:00:43.559Z,65856.00
2022-08-02T10:01:34.178Z,68576.00
2022-08-02T10:02:27.080Z,81312.00
2022-08-02T10:03:31.081Z,84352.00
2022-08-02T10:04:27.394Z,79232.00
2022-08-02T10:05:26.523Z,76800.00
2022-08-02T10:06:26.703Z,79328.00
2022-08-02T10:07:26.881Z,71520.00
2022-08-02T10:08:27.066Z,75328.00
2022-08-02T10:09:27.263Z,36928.00
2022-08-02T10:10:27.418Z,70208.00
2022-08-02T10:11:27.596Z,48544.00
2022-08-02T10:12:27.774Z,82240.00
2022-08-02T10:13:27.953Z,79392.00
2022-08-02T10:14:28.163Z,83936.00
2022-08-02T10:15:28.324Z,85056.00
2022-08-02T10:16:28.514Z,98624.00
2022-08-02T10:17:28.685Z,85600.00
2022-08-02T10:18:43.279Z,19808.00
2022-08-02T10:20:02.288Z,81984.00
2022-08-02T10:20:30.235Z,74016.00
2022-08-02T10:21:29.386Z,71424.00
2022-08-02T10:22:29.576Z,67776.00
2022-08-02T10:23:29.750Z,60736.00
2022-08-02T10:24:29.945Z,60192.00
2022-08-02T10:25:30.120Z,60256.00
2022-08-02T10:26:30.298Z,51488.00
2022-08-02T10:27:43.298Z,24704.00
2022-08-02T10:28:31.650Z,15128.00
2022-08-02T10:29:30.838Z,15208.00
2022-08-02T10:30:32.009Z,14668.00
2022-08-02T10:31:31.168Z,14456.00
2022-08-02T10:32:31.375Z,13140.00
2022-08-02T10:33:31.505Z,12068.00
2022-08-02T10:34:31.927Z,10804.00
2022-08-02T10:35:31.859Z,9468.00
2022-08-02T10:36:32.041Z,8400.00
2022-08-02T10:37:32.220Z,8052.00
2022-08-02T10:38:32.418Z,8032.00
2022-08-02T10:39:32.579Z,7480.00
2022-08-02T10:40:32.730Z,7096.00
2022-08-02T10:41:32.900Z,7000.00
2022-08-02T10:42:33.088Z,6952.00
2022-08-02T10:43:33.260Z,6920.00
2022-08-02T10:44:33.451Z,6876.00
2022-08-02T10:45:33.627Z,7128.00
2022-08-02T10:46:33.815Z,8112.00
2022-08-02T10:47:33.980Z,8284.00
2022-08-02T10:48:34.163Z,8120.00
2022-08-02T10:49:39.877Z,7516.00
2022-08-02T10:50:35.513Z,6384.00
2022-08-02T10:51:34.718Z,6624.00
2022-08-02T10:52:34.865Z,7504.00
2022-08-02T10:53:35.042Z,6960.00
2022-08-02T10:54:35.243Z,6468.00
2022-08-02T10:55:35.413Z,5724.00
2022-08-02T10:56:35.595Z,5652.00
2022-08-02T10:57:35.754Z,5364.00
2022-08-02T10:58:35.942Z,5228.00
2022-08-02T10:59:36.304Z,5160.00
2022-08-02T11:00:36.330Z,5132.00
2022-08-02T11:01:38.567Z,5052.00
2022-08-02T11:02:36.661Z,5024.00
2022-08-02T11:03:39.406Z,5012.00
2022-08-02T11:04:37.044Z,5040.00
2022-08-02T11:05:42.769Z,5084.00
2022-08-02T11:06:38.356Z,5188.00
2022-08-02T11:07:37.513Z,5156.00
2022-08-02T11:08:37.696Z,5192.00
2022-08-02T11:09:37.906Z,5272.00
2022-08-02T11:10:38.046Z,5104.00
2022-08-02T11:11:53.554Z,4984.00
2022-08-02T11:12:39.421Z,5028.00
2022-08-02T11:13:38.607Z,4944.00
2022-08-02T11:14:38.827Z,4804.00
2022-08-02T11:15:38.957Z,4708.00
2022-08-02T11:16:39.147Z,4644.00
2022-08-02T11:17:39.327Z,4640.00
2022-08-02T11:18:39.509Z,4696.00
2022-08-02T11:19:39.667Z,4780.00
2022-08-02T11:20:39.837Z,4724.00
2022-08-02T11:21:40.020Z,4848.00
2022-08-02T11:22:40.199Z,4988.00
2022-08-02T11:23:44.722Z,5036.00
2022-08-02T11:24:41.589Z,5072.00
2022-08-02T11:26:03.278Z,5084.00
2022-08-02T11:26:41.917Z,5104.00
2022-08-02T11:27:41.099Z,5040.00
2022-08-02T11:28:41.279Z,4976.00
2022-08-02T11:29:41.471Z,4856.00
2022-08-02T11:30:41.650Z,4788.00
2022-08-02T11:31:41.830Z,4824.00
2022-08-02T11:32:42.010Z,4668.00
2022-08-02T11:33:42.190Z,4612.00
2022-08-02T11:34:42.388Z,4396.00
2022-08-02T11:35:42.530Z,4268.00
2022-08-02T11:36:42.712Z,4208.00
2022-08-02T11:37:42.891Z,4172.00
2022-08-02T11:38:43.072Z,4136.00
2022-08-02T11:39:43.272Z,4136.00
2022-08-02T11:40:43.425Z,4116.00
2022-08-02T11:41:46.416Z,4108.00
2022-08-02T11:42:43.772Z,4072.00
2022-08-02T11:43:43.952Z,3980.00
2022-08-02T11:44:44.150Z,3948.00
2022-08-02T11:45:44.293Z,3952.00
2022-08-02T11:46:44.473Z,3924.00
2022-08-02T11:47:44.645Z,3912.00
2022-08-02T11:48:44.841Z,3900.00
2022-08-02T11:49:45.073Z,3900.00
2022-08-02T11:50:45.184Z,3884.00
2022-08-02T11:51:45.384Z,3852.00
2022-08-02T11:52:45.534Z,3852.00
2022-08-02T11:53:45.713Z,3872.00
2022-08-02T11:54:45.906Z,3888.00
2022-08-02T11:55:46.047Z,3888.00
2022-08-02T11:56:46.225Z,3880.00
2022-08-02T11:58:04.456Z,3848.00
2022-08-02T11:58:47.594Z,3816.00
2022-08-02T11:59:46.795Z,3796.00
2022-08-02T12:00:46.944Z,3768.00
2022-08-02T12:01:47.126Z,3768.00
2022-08-02T12:02:47.354Z,3744.00
2022-08-02T12:03:47.580Z,3720.00
2022-08-02T12:04:47.676Z,3668.00
2022-08-02T12:06:05.617Z,3640.00
2022-08-02T12:06:49.037Z,3628.00
2022-08-02T12:07:48.228Z,3608.00
2022-08-02T12:08:54.457Z,3592.00
2022-08-02T12:09:49.578Z,3584.00
2022-08-02T12:10:48.750Z,3564.00
2022-08-02T12:11:48.920Z,3564.00
2022-08-02T12:12:49.131Z,3576.00
2022-08-02T12:13:57.307Z,3600.00
2022-08-02T12:14:50.474Z,3628.00
2022-08-02T12:15:49.618Z,3628.00
2022-08-02T12:16:49.808Z,3612.00
2022-08-02T12:17:49.991Z,3580.00